Watertown, SD

3:15 PM CDT on September 21, 2014 (GMT -0500)
Watertown Municipal | Change Station
CLOSE
Current Station
Airport
Location: Watertown,
Elevation: 1749 ft
Nearby Weather Stations

Elev 1749 ft 44.90 °N, 97.15 °W | Updated 22 minutes ago

Clear
Clear
67 °F
Feels Like 67 °F
N
17
Wind Variable Wind from North

Today
High -- | Low -- °F
--% Chance of Precip.
Yesterday
High -- | Low -- °F
Precip. -- in
7:14 AM 7:27 PM
Waning Crescent, 5% visible
Pressure 30.23 in
Visibility 10.0 miles
Clouds Scattered Clouds 4900 ft
Dew Point 45 °F
Humidity 45%
Rainfall 0.00 in
Snow Depth 0 in
UV 5 out of 12
Pollen 5.50 out of 12
Air Quality Not available.
Flu Activity Not available.
METAR KATY 211953Z AUTO 01015KT 10SM SCT049 19/07 A3023 RMK AO2 SLP237 T01940072

More Conditions Fewer Conditions

Pressure 30.23 in
Visibility 10.0 miles
Clouds Scattered Clouds 4900 ft
Dew Point 45 °F
Humidity 45%
Rainfall 0.00 in
Snow Depth 0 in
UV 5 out of 12
Pollen 5.50 out of 12
Air Quality Not available.
Flu Activity Not available.
METAR KATY 211953Z AUTO 01015KT 10SM SCT049 19/07 A3023 RMK AO2 SLP237 T01940072

More Conditions Fewer Conditions

10-Day Weather Forecast

Almanac

Astronomy

Sep. 21, 2014 Rise Set
Actual Time 7:14 AM CDT 7:27 PM CDT
Civil Twilight 6:45 AM CDT 7:57 PM CDT
Nautical Twilight 6:10 AM CDT 8:31 PM CDT
Astronomical Twilight 5:35 AM CDT 9:06 PM CDT
Moon 4:44 AM CDT 6:08 PM CDT
Length of Visible Light 13h 11m
Length of Day
12h 13m
Tomorrow will be 3m 6s shorter.
Waning Crescent, 5% of the Moon is Illuminated
Today
Waning Crescent
Sep 24
New
Oct 1
First Quarter
Oct 8
Full
Oct 15
Last Quarter

Today's Extremes

State Highs State Lows

Community

WunderPhotos

Upload Photos

1,755,243 photos uploaded!

Nearby

Snow Depth

Station Depth Elevation
Blind Park 0 in 6890 ft

Earthquake Activity

City Distance Mag. Time & Date
No recent earthquake activity has been reported nearby.
Minimum magnitude displayed is 2.5.

Coastal Water Temperatures

Place Temperature
No Stations Reporting

Nearby Weather Stations